sensor_id;sensor_type;location;lat;lon;timestamp;temperature;humidity
16402;DHT22;8310;44.626;11.176;2023-04-25T00:01:31;16.00;55.40
16402;DHT22;8310;44.626;11.176;2023-04-25T00:04:00;15.90;55.40
16402;DHT22;8310;44.626;11.176;2023-04-25T00:06:27;15.90;55.40
16402;DHT22;8310;44.626;11.176;2023-04-25T00:08:55;15.90;55.40
16402;DHT22;8310;44.626;11.176;2023-04-25T00:11:22;15.80;55.30
16402;DHT22;8310;44.626;11.176;2023-04-25T00:13:50;15.80;55.40
16402;DHT22;8310;44.626;11.176;2023-04-25T00:16:17;15.80;55.40
16402;DHT22;8310;44.626;11.176;2023-04-25T00:18:46;15.80;55.40
16402;DHT22;8310;44.626;11.176;2023-04-25T00:21:16;15.80;55.50
16402;DHT22;8310;44.626;11.176;2023-04-25T00:23:45;15.70;55.40
16402;DHT22;8310;44.626;11.176;2023-04-25T00:26:12;15.70;55.30
16402;DHT22;8310;44.626;11.176;2023-04-25T00:28:40;15.60;55.30
16402;DHT22;8310;44.626;11.176;2023-04-25T00:31:08;15.60;55.30
16402;DHT22;8310;44.626;11.176;2023-04-25T00:33:35;15.50;55.30
16402;DHT22;8310;44.626;11.176;2023-04-25T00:36:05;15.50;55.30
16402;DHT22;8310;44.626;11.176;2023-04-25T00:38:33;15.50;55.40
16402;DHT22;8310;44.626;11.176;2023-04-25T00:41:01;15.50;55.40
16402;DHT22;8310;44.626;11.176;2023-04-25T00:43:30;15.40;55.30
16402;DHT22;8310;44.626;11.176;2023-04-25T00:46:00;15.40;55.40
16402;DHT22;8310;44.626;11.176;2023-04-25T00:48:28;15.40;55.40
16402;DHT22;8310;44.626;11.176;2023-04-25T00:50:58;15.40;55.40
16402;DHT22;8310;44.626;11.176;2023-04-25T00:53:28;15.30;55.40
16402;DHT22;8310;44.626;11.176;2023-04-25T00:55:57;15.30;55.40
16402;DHT22;8310;44.626;11.176;2023-04-25T00:58:25;15.30;55.40
16402;DHT22;8310;44.626;11.176;2023-04-25T01:00:53;15.30;55.40
16402;DHT22;8310;44.626;11.176;2023-04-25T01:03:22;15.20;55.40
16402;DHT22;8310;44.626;11.176;2023-04-25T01:05:50;15.20;56.00
16402;DHT22;8310;44.626;11.176;2023-04-25T01:08:18;15.20;55.40
16402;DHT22;8310;44.626;11.176;2023-04-25T01:10:46;15.20;55.40
16402;DHT22;8310;44.626;11.176;2023-04-25T01:13:14;15.20;55.40
16402;DHT22;8310;44.626;11.176;2023-04-25T01:15:42;15.20;55.40
16402;DHT22;8310;44.626;11.176;2023-04-25T01:18:10;15.20;55.50
16402;DHT22;8310;44.626;11.176;2023-04-25T01:20:37;15.20;55.50
16402;DHT22;8310;44.626;11.176;2023-04-25T01:23:07;15.10;55.40
16402;DHT22;8310;44.626;11.176;2023-04-25T01:25:34;15.10;55.40
16402;DHT22;8310;44.626;11.176;2023-04-25T01:28:02;15.10;55.50
16402;DHT22;8310;44.626;11.176;2023-04-25T01:30:29;15.10;55.50
16402;DHT22;8310;44.626;11.176;2023-04-25T01:32:57;15.10;55.50
16402;DHT22;8310;44.626;11.176;2023-04-25T01:35:24;15.10;55.50
16402;DHT22;8310;44.626;11.176;2023-04-25T01:37:53;15.10;55.50
16402;DHT22;8310;44.626;11.176;2023-04-25T01:40:21;15.00;55.40
16402;DHT22;8310;44.626;11.176;2023-04-25T01:42:49;15.00;55.40
16402;DHT22;8310;44.626;11.176;2023-04-25T01:45:16;15.00;55.50
16402;DHT22;8310;44.626;11.176;2023-04-25T01:47:44;15.00;55.50
16402;DHT22;8310;44.626;11.176;2023-04-25T01:50:14;15.00;55.50
16402;DHT22;8310;44.626;11.176;2023-04-25T01:52:42;14.90;55.50
16402;DHT22;8310;44.626;11.176;2023-04-25T01:55:09;15.00;55.60
16402;DHT22;8310;44.626;11.176;2023-04-25T01:57:39;15.00;55.60
16402;DHT22;8310;44.626;11.176;2023-04-25T02:00:07;14.90;55.60
16402;DHT22;8310;44.626;11.176;2023-04-25T02:02:34;15.00;55.60
16402;DHT22;8310;44.626;11.176;2023-04-25T02:05:01;15.00;55.60
16402;DHT22;8310;44.626;11.176;2023-04-25T02:07:29;14.90;55.60
16402;DHT22;8310;44.626;11.176;2023-04-25T02:09:56;14.90;55.60
16402;DHT22;8310;44.626;11.176;2023-04-25T02:12:23;14.90;55.60
16402;DHT22;8310;44.626;11.176;2023-04-25T02:14:53;14.90;55.60
16402;DHT22;8310;44.626;11.176;2023-04-25T02:17:21;14.80;55.60
16402;DHT22;8310;44.626;11.176;2023-04-25T02:19:48;14.80;55.60
16402;DHT22;8310;44.626;11.176;2023-04-25T02:22:15;14.80;55.60
16402;DHT22;8310;44.626;11.176;2023-04-25T02:24:42;14.80;55.70
16402;DHT22;8310;44.626;11.176;2023-04-25T02:27:10;14.80;55.60
16402;DHT22;8310;44.626;11.176;2023-04-25T02:29:37;14.80;55.70
16402;DHT22;8310;44.626;11.176;2023-04-25T02:32:09;14.80;55.70
16402;DHT22;8310;44.626;11.176;2023-04-25T02:34:37;14.80;55.70
16402;DHT22;8310;44.626;11.176;2023-04-25T02:37:04;14.80;55.70
16402;DHT22;8310;44.626;11.176;2023-04-25T02:39:31;14.80;55.70
16402;DHT22;8310;44.626;11.176;2023-04-25T02:41:58;14.80;55.60
16402;DHT22;8310;44.626;11.176;2023-04-25T02:44:26;14.60;55.50
16402;DHT22;8310;44.626;11.176;2023-04-25T02:46:53;14.50;55.30
16402;DHT22;8310;44.626;11.176;2023-04-25T02:49:22;14.40;55.20
16402;DHT22;8310;44.626;11.176;2023-04-25T02:51:50;14.30;55.10
16402;DHT22;8310;44.626;11.176;2023-04-25T02:54:17;14.10;55.20
16402;DHT22;8310;44.626;11.176;2023-04-25T02:56:44;14.10;55.30
16402;DHT22;8310;44.626;11.176;2023-04-25T02:59:11;14.00;55.30
16402;DHT22;8310;44.626;11.176;2023-04-25T03:01:39;14.00;55.40
16402;DHT22;8310;44.626;11.176;2023-04-25T03:04:07;14.00;55.90
16402;DHT22;8310;44.626;11.176;2023-04-25T03:06:36;13.90;55.50
16402;DHT22;8310;44.626;11.176;2023-04-25T03:09:03;13.90;55.40
16402;DHT22;8310;44.626;11.176;2023-04-25T03:11:31;13.90;55.40
16402;DHT22;8310;44.626;11.176;2023-04-25T03:13:58;13.80;55.30
16402;DHT22;8310;44.626;11.176;2023-04-25T03:16:26;13.80;55.30
16402;DHT22;8310;44.626;11.176;2023-04-25T03:18:54;13.70;55.20
16402;DHT22;8310;44.626;11.176;2023-04-25T03:21:21;13.60;55.20
16402;DHT22;8310;44.626;11.176;2023-04-25T03:23:50;13.50;55.20
16402;DHT22;8310;44.626;11.176;2023-04-25T03:26:17;13.40;55.30
16402;DHT22;8310;44.626;11.176;2023-04-25T03:28:44;13.40;55.40
16402;DHT22;8310;44.626;11.176;2023-04-25T03:31:11;13.30;55.30
16402;DHT22;8310;44.626;11.176;2023-04-25T03:33:40;13.30;55.50
16402;DHT22;8310;44.626;11.176;2023-04-25T03:36:07;13.30;55.50
16402;DHT22;8310;44.626;11.176;2023-04-25T03:38:34;13.40;55.60
16402;DHT22;8310;44.626;11.176;2023-04-25T03:41:03;13.40;55.60
16402;DHT22;8310;44.626;11.176;2023-04-25T03:43:31;13.40;55.70
16402;DHT22;8310;44.626;11.176;2023-04-25T03:45:59;13.40;55.70
16402;DHT22;8310;44.626;11.176;2023-04-25T03:48:27;13.40;55.50
16402;DHT22;8310;44.626;11.176;2023-04-25T03:50:54;13.40;55.40
16402;DHT22;8310;44.626;11.176;2023-04-25T03:53:22;13.30;55.40
16402;DHT22;8310;44.626;11.176;2023-04-25T03:55:49;13.30;55.50
16402;DHT22;8310;44.626;11.176;2023-04-25T03:58:18;13.20;55.50
16402;DHT22;8310;44.626;11.176;2023-04-25T04:00:45;13.20;55.50
16402;DHT22;8310;44.626;11.176;2023-04-25T04:03:16;13.20;55.50
16402;DHT22;8310;44.626;11.176;2023-04-25T04:05:44;13.20;55.60
16402;DHT22;8310;44.626;11.176;2023-04-25T04:08:11;13.20;55.60
16402;DHT22;8310;44.626;11.176;2023-04-25T04:10:39;13.20;55.70
16402;DHT22;8310;44.626;11.176;2023-04-25T04:13:06;13.20;55.70
16402;DHT22;8310;44.626;11.176;2023-04-25T04:15:35;13.20;55.70
16402;DHT22;8310;44.626;11.176;2023-04-25T04:18:02;13.20;55.60
16402;DHT22;8310;44.626;11.176;2023-04-25T04:20:29;13.10;55.40
16402;DHT22;8310;44.626;11.176;2023-04-25T04:22:57;13.00;56.00
16402;DHT22;8310;44.626;11.176;2023-04-25T04:25:25;12.90;55.40
16402;DHT22;8310;44.626;11.176;2023-04-25T04:27:52;12.80;55.40
16402;DHT22;8310;44.626;11.176;2023-04-25T04:30:21;12.70;55.70
16402;DHT22;8310;44.626;11.176;2023-04-25T04:32:51;12.60;55.70
16402;DHT22;8310;44.626;11.176;2023-04-25T04:35:18;12.50;55.40
16402;DHT22;8310;44.626;11.176;2023-04-25T04:37:46;12.50;55.90
16402;DHT22;8310;44.626;11.176;2023-04-25T04:40:13;12.40;56.10
16402;DHT22;8310;44.626;11.176;2023-04-25T04:42:41;12.40;55.70
16402;DHT22;8310;44.626;11.176;2023-04-25T04:45:09;12.30;55.70
16402;DHT22;8310;44.626;11.176;2023-04-25T04:47:37;12.30;56.00
16402;DHT22;8310;44.626;11.176;2023-04-25T04:50:07;12.30;56.40
16402;DHT22;8310;44.626;11.176;2023-04-25T04:52:35;12.30;56.90
16402;DHT22;8310;44.626;11.176;2023-04-25T04:55:03;12.40;57.90
16402;DHT22;8310;44.626;11.176;2023-04-25T04:57:31;12.40;57.00
16402;DHT22;8310;44.626;11.176;2023-04-25T04:59:58;12.50;56.70
16402;DHT22;8310;44.626;11.176;2023-04-25T05:02:25;12.60;56.70
16402;DHT22;8310;44.626;11.176;2023-04-25T05:04:53;12.60;56.50
16402;DHT22;8310;44.626;11.176;2023-04-25T05:07:29;12.70;56.60
16402;DHT22;8310;44.626;11.176;2023-04-25T05:09:56;12.70;56.60
16402;DHT22;8310;44.626;11.176;2023-04-25T05:12:24;12.80;56.60
16402;DHT22;8310;44.626;11.176;2023-04-25T05:14:52;12.80;56.60
16402;DHT22;8310;44.626;11.176;2023-04-25T05:17:19;12.90;56.70
16402;DHT22;8310;44.626;11.176;2023-04-25T05:19:47;13.00;56.80
16402;DHT22;8310;44.626;11.176;2023-04-25T05:22:14;13.00;56.70
16402;DHT22;8310;44.626;11.176;2023-04-25T05:24:43;13.10;57.40
16402;DHT22;8310;44.626;11.176;2023-04-25T05:27:15;13.10;56.70
16402;DHT22;8310;44.626;11.176;2023-04-25T05:29:43;13.20;56.80
16402;DHT22;8310;44.626;11.176;2023-04-25T05:32:10;13.20;57.70
16402;DHT22;8310;44.626;11.176;2023-04-25T05:34:38;13.20;60.50
16402;DHT22;8310;44.626;11.176;2023-04-25T05:37:05;13.20;58.90
16402;DHT22;8310;44.626;11.176;2023-04-25T05:39:32;13.20;57.50
16402;DHT22;8310;44.626;11.176;2023-04-25T05:42:01;13.20;57.10
16402;DHT22;8310;44.626;11.176;2023-04-25T05:44:29;13.20;57.00
16402;DHT22;8310;44.626;11.176;2023-04-25T05:46:56;13.30;57.00
16402;DHT22;8310;44.626;11.176;2023-04-25T05:49:24;13.30;56.90
16402;DHT22;8310;44.626;11.176;2023-04-25T05:51:51;13.30;57.00
16402;DHT22;8310;44.626;11.176;2023-04-25T05:54:18;13.30;56.90
16402;DHT22;8310;44.626;11.176;2023-04-25T05:56:45;13.30;58.10
16402;DHT22;8310;44.626;11.176;2023-04-25T05:59:14;13.30;58.10
16402;DHT22;8310;44.626;11.176;2023-04-25T06:01:42;13.40;60.40
16402;DHT22;8310;44.626;11.176;2023-04-25T06:04:09;13.40;62.50
16402;DHT22;8310;44.626;11.176;2023-04-25T06:06:36;13.40;61.10
16402;DHT22;8310;44.626;11.176;2023-04-25T06:09:04;13.40;62.80
16402;DHT22;8310;44.626;11.176;2023-04-25T06:11:37;13.50;64.60
16402;DHT22;8310;44.626;11.176;2023-04-25T06:14:05;13.50;63.20
16402;DHT22;8310;44.626;11.176;2023-04-25T06:16:34;13.50;60.80
16402;DHT22;8310;44.626;11.176;2023-04-25T06:19:01;13.50;60.60
16402;DHT22;8310;44.626;11.176;2023-04-25T06:21:28;13.60;59.60
16402;DHT22;8310;44.626;11.176;2023-04-25T06:23:56;13.60;58.90
16402;DHT22;8310;44.626;11.176;2023-04-25T06:26:24;13.70;58.70
16402;DHT22;8310;44.626;11.176;2023-04-25T06:28:51;13.70;58.30
16402;DHT22;8310;44.626;11.176;2023-04-25T06:31:18;13.80;59.10
16402;DHT22;8310;44.626;11.176;2023-04-25T06:33:47;13.80;60.10
16402;DHT22;8310;44.626;11.176;2023-04-25T06:36:14;13.80;59.60
16402;DHT22;8310;44.626;11.176;2023-04-25T06:38:42;13.80;63.70
16402;DHT22;8310;44.626;11.176;2023-04-25T06:41:10;13.80;61.80
16402;DHT22;8310;44.626;11.176;2023-04-25T06:43:37;13.80;62.50
16402;DHT22;8310;44.626;11.176;2023-04-25T06:46:04;13.90;62.20
16402;DHT22;8310;44.626;11.176;2023-04-25T06:48:31;13.90;63.90
16402;DHT22;8310;44.626;11.176;2023-04-25T06:51:00;13.90;65.10
16402;DHT22;8310;44.626;11.176;2023-04-25T06:53:28;14.00;66.90
16402;DHT22;8310;44.626;11.176;2023-04-25T06:55:56;14.00;62.40
16402;DHT22;8310;44.626;11.176;2023-04-25T06:58:23;14.10;61.50
16402;DHT22;8310;44.626;11.176;2023-04-25T07:00:51;14.10;64.20
16402;DHT22;8310;44.626;11.176;2023-04-25T07:03:18;14.20;63.50
16402;DHT22;8310;44.626;11.176;2023-04-25T07:05:46;14.20;65.80
16402;DHT22;8310;44.626;11.176;2023-04-25T07:08:14;14.20;63.70
16402;DHT22;8310;44.626;11.176;2023-04-25T07:10:42;14.30;61.90
16402;DHT22;8310;44.626;11.176;2023-04-25T07:13:11;14.40;60.60
16402;DHT22;8310;44.626;11.176;2023-04-25T07:15:38;14.40;60.10
16402;DHT22;8310;44.626;11.176;2023-04-25T07:18:05;14.50;60.10
16402;DHT22;8310;44.626;11.176;2023-04-25T07:20:33;14.50;60.00
16402;DHT22;8310;44.626;11.176;2023-04-25T07:22:59;14.60;60.00
16402;DHT22;8310;44.626;11.176;2023-04-25T07:25:28;14.70;59.90
16402;DHT22;8310;44.626;11.176;2023-04-25T07:27:58;14.80;61.70
16402;DHT22;8310;44.626;11.176;2023-04-25T07:30:25;15.10;61.20
16402;DHT22;8310;44.626;11.176;2023-04-25T07:32:52;15.30;61.10
16402;DHT22;8310;44.626;11.176;2023-04-25T07:35:23;15.50;62.50
16402;DHT22;8310;44.626;11.176;2023-04-25T07:37:49;15.60;63.10
16402;DHT22;8310;44.626;11.176;2023-04-25T07:40:17;15.60;62.70
16402;DHT22;8310;44.626;11.176;2023-04-25T07:42:45;15.70;63.60
16402;DHT22;8310;44.626;11.176;2023-04-25T07:45:13;15.80;63.40
16402;DHT22;8310;44.626;11.176;2023-04-25T07:47:40;15.90;63.30
16402;DHT22;8310;44.626;11.176;2023-04-25T07:50:08;16.00;65.30
16402;DHT22;8310;44.626;11.176;2023-04-25T07:52:36;16.20;62.90
16402;DHT22;8310;44.626;11.176;2023-04-25T07:55:03;16.20;62.50
16402;DHT22;8310;44.626;11.176;2023-04-25T07:57:31;16.20;61.20
16402;DHT22;8310;44.626;11.176;2023-04-25T07:59:59;16.20;60.40
16402;DHT22;8310;44.626;11.176;2023-04-25T08:02:27;16.00;59.90
16402;DHT22;8310;44.626;11.176;2023-04-25T08:05:01;16.00;59.70
16402;DHT22;8310;44.626;11.176;2023-04-25T08:07:29;15.80;59.40
16402;DHT22;8310;44.626;11.176;2023-04-25T08:09:55;15.80;59.30
16402;DHT22;8310;44.626;11.176;2023-04-25T08:12:23;15.70;59.40
16402;DHT22;8310;44.626;11.176;2023-04-25T08:14:50;15.60;59.30
16402;DHT22;8310;44.626;11.176;2023-04-25T08:17:19;15.70;59.30
16402;DHT22;8310;44.626;11.176;2023-04-25T08:19:46;15.70;59.30
16402;DHT22;8310;44.626;11.176;2023-04-25T08:22:13;15.70;59.30
16402;DHT22;8310;44.626;11.176;2023-04-25T08:24:41;15.70;59.30
16402;DHT22;8310;44.626;11.176;2023-04-25T08:27:08;15.70;59.30
16402;DHT22;8310;44.626;11.176;2023-04-25T08:29:35;15.70;59.20
16402;DHT22;8310;44.626;11.176;2023-04-25T08:32:03;15.70;59.20
16402;DHT22;8310;44.626;11.176;2023-04-25T08:34:31;15.70;59.20
16402;DHT22;8310;44.626;11.176;2023-04-25T08:36:59;15.80;59.30
16402;DHT22;8310;44.626;11.176;2023-04-25T08:39:27;15.90;59.40
16402;DHT22;8310;44.626;11.176;2023-04-25T08:41:54;15.90;59.50
16402;DHT22;8310;44.626;11.176;2023-04-25T08:44:22;16.00;59.70
16402;DHT22;8310;44.626;11.176;2023-04-25T08:46:50;16.10;59.80
16402;DHT22;8310;44.626;11.176;2023-04-25T08:49:19;16.20;59.90
16402;DHT22;8310;44.626;11.176;2023-04-25T08:51:47;16.40;59.90
16402;DHT22;8310;44.626;11.176;2023-04-25T08:54:16;16.40;59.90
16402;DHT22;8310;44.626;11.176;2023-04-25T08:56:44;16.60;59.90
16402;DHT22;8310;44.626;11.176;2023-04-25T08:59:12;16.60;59.80
16402;DHT22;8310;44.626;11.176;2023-04-25T09:01:39;16.70;59.70
16402;DHT22;8310;44.626;11.176;2023-04-25T09:04:07;16.70;59.70
16402;DHT22;8310;44.626;11.176;2023-04-25T09:06:35;16.70;59.60
16402;DHT22;8310;44.626;11.176;2023-04-25T09:09:04;16.80;59.80
16402;DHT22;8310;44.626;11.176;2023-04-25T09:11:32;16.80;59.60
16402;DHT22;8310;44.626;11.176;2023-04-25T09:16:57;16.90;59.60
16402;DHT22;8310;44.626;11.176;2023-04-25T09:19:25;16.90;59.60
16402;DHT22;8310;44.626;11.176;2023-04-25T09:21:57;16.90;59.60
16402;DHT22;8310;44.626;11.176;2023-04-25T09:24:33;17.00;59.70
16402;DHT22;8310;44.626;11.176;2023-04-25T09:27:03;17.00;59.70
16402;DHT22;8310;44.626;11.176;2023-04-25T09:29:33;17.10;59.70
16402;DHT22;8310;44.626;11.176;2023-04-25T09:34:52;17.10;59.80
16402;DHT22;8310;44.626;11.176;2023-04-25T09:37:21;17.20;59.80
16402;DHT22;8310;44.626;11.176;2023-04-25T09:39:50;17.30;59.90
16402;DHT22;8310;44.626;11.176;2023-04-25T09:42:17;17.30;59.90
16402;DHT22;8310;44.626;11.176;2023-04-25T09:44:45;17.40;59.90
16402;DHT22;8310;44.626;11.176;2023-04-25T09:47:14;17.50;60.00
16402;DHT22;8310;44.626;11.176;2023-04-25T09:49:42;17.50;59.90
16402;DHT22;8310;44.626;11.176;2023-04-25T09:52:13;17.60;60.00
16402;DHT22;8310;44.626;11.176;2023-04-25T09:54:40;17.60;59.90
16402;DHT22;8310;44.626;11.176;2023-04-25T09:57:11;17.70;59.90
16402;DHT22;8310;44.626;11.176;2023-04-25T09:59:39;17.70;59.90
16402;DHT22;8310;44.626;11.176;2023-04-25T10:02:09;17.80;60.10
16402;DHT22;8310;44.626;11.176;2023-04-25T10:04:37;17.80;60.10
16402;DHT22;8310;44.626;11.176;2023-04-25T10:07:05;17.90;61.00
16402;DHT22;8310;44.626;11.176;2023-04-25T10:09:33;18.00;61.00
16402;DHT22;8310;44.626;11.176;2023-04-25T10:12:00;18.10;60.40
16402;DHT22;8310;44.626;11.176;2023-04-25T10:14:31;18.20;60.60
16402;DHT22;8310;44.626;11.176;2023-04-25T10:16:58;18.30;60.80
16402;DHT22;8310;44.626;11.176;2023-04-25T10:19:26;18.50;60.90
16402;DHT22;8310;44.626;11.176;2023-04-25T10:21:55;18.60;61.30
16402;DHT22;8310;44.626;11.176;2023-04-25T10:24:24;18.80;61.50
16402;DHT22;8310;44.626;11.176;2023-04-25T10:26:52;19.00;61.40
16402;DHT22;8310;44.626;11.176;2023-04-25T10:29:23;19.20;61.50
16402;DHT22;8310;44.626;11.176;2023-04-25T10:31:52;19.30;61.40
16402;DHT22;8310;44.626;11.176;2023-04-25T10:34:19;19.40;61.40
16402;DHT22;8310;44.626;11.176;2023-04-25T10:36:50;19.50;61.50
16402;DHT22;8310;44.626;11.176;2023-04-25T10:39:22;19.70;61.60
16402;DHT22;8310;44.626;11.176;2023-04-25T10:41:53;19.80;61.30
16402;DHT22;8310;44.626;11.176;2023-04-25T10:44:22;19.80;60.70
16402;DHT22;8310;44.626;11.176;2023-04-25T10:46:49;19.80;60.50
16402;DHT22;8310;44.626;11.176;2023-04-25T10:49:31;19.70;59.30
16402;DHT22;8310;44.626;11.176;2023-04-25T10:52:11;19.60;59.60
16402;DHT22;8310;44.626;11.176;2023-04-25T10:54:42;19.50;59.00
16402;DHT22;8310;44.626;11.176;2023-04-25T10:59:54;19.40;60.00
16402;DHT22;8310;44.626;11.176;2023-04-25T11:02:21;19.50;60.60
16402;DHT22;8310;44.626;11.176;2023-04-25T11:04:54;19.60;60.90
16402;DHT22;8310;44.626;11.176;2023-04-25T11:07:23;19.80;60.60
16402;DHT22;8310;44.626;11.176;2023-04-25T11:09:53;19.80;61.00
16402;DHT22;8310;44.626;11.176;2023-04-25T11:12:20;19.90;60.40
16402;DHT22;8310;44.626;11.176;2023-04-25T11:14:47;19.90;60.50
16402;DHT22;8310;44.626;11.176;2023-04-25T11:17:16;20.00;60.60
16402;DHT22;8310;44.626;11.176;2023-04-25T11:19:43;20.10;60.80
16402;DHT22;8310;44.626;11.176;2023-04-25T11:22:12;20.20;60.20
16402;DHT22;8310;44.626;11.176;2023-04-25T11:24:40;20.20;60.00
16402;DHT22;8310;44.626;11.176;2023-04-25T11:27:07;20.20;60.20
16402;DHT22;8310;44.626;11.176;2023-04-25T11:29:34;20.20;60.30
16402;DHT22;8310;44.626;11.176;2023-04-25T11:32:01;20.30;61.30
16402;DHT22;8310;44.626;11.176;2023-04-25T11:34:29;20.40;60.70
16402;DHT22;8310;44.626;11.176;2023-04-25T11:36:58;20.40;60.40
16402;DHT22;8310;44.626;11.176;2023-04-25T11:39:27;20.50;60.50
16402;DHT22;8310;44.626;11.176;2023-04-25T11:41:54;20.60;60.70
16402;DHT22;8310;44.626;11.176;2023-04-25T11:44:25;20.70;60.70
16402;DHT22;8310;44.626;11.176;2023-04-25T11:46:55;20.70;60.70
16402;DHT22;8310;44.626;11.176;2023-04-25T11:49:22;20.80;60.20
16402;DHT22;8310;44.626;11.176;2023-04-25T11:51:50;20.90;60.40
16402;DHT22;8310;44.626;11.176;2023-04-25T11:54:17;20.90;60.30
16402;DHT22;8310;44.626;11.176;2023-04-25T11:56:45;20.90;60.40
16402;DHT22;8310;44.626;11.176;2023-04-25T11:59:13;21.00;59.80
16402;DHT22;8310;44.626;11.176;2023-04-25T12:01:40;20.90;59.90
16402;DHT22;8310;44.626;11.176;2023-04-25T12:04:11;20.90;59.20
16402;DHT22;8310;44.626;11.176;2023-04-25T12:06:39;20.70;59.20
16402;DHT22;8310;44.626;11.176;2023-04-25T12:09:07;20.60;59.50
16402;DHT22;8310;44.626;11.176;2023-04-25T12:11:40;20.40;58.60
16402;DHT22;8310;44.626;11.176;2023-04-25T12:14:09;20.30;57.40
16402;DHT22;8310;44.626;11.176;2023-04-25T12:16:40;20.10;58.30
16402;DHT22;8310;44.626;11.176;2023-04-25T12:19:07;20.10;58.80
16402;DHT22;8310;44.626;11.176;2023-04-25T12:21:34;20.10;59.50
16402;DHT22;8310;44.626;11.176;2023-04-25T12:24:12;20.20;59.80
16402;DHT22;8310;44.626;11.176;2023-04-25T12:26:46;20.40;59.90
16402;DHT22;8310;44.626;11.176;2023-04-25T12:29:19;20.50;59.90
16402;DHT22;8310;44.626;11.176;2023-04-25T12:31:47;20.50;59.70
16402;DHT22;8310;44.626;11.176;2023-04-25T12:34:14;20.60;59.80
16402;DHT22;8310;44.626;11.176;2023-04-25T12:36:41;20.60;59.80
16402;DHT22;8310;44.626;11.176;2023-04-25T12:39:13;20.60;59.60
16402;DHT22;8310;44.626;11.176;2023-04-25T12:41:40;20.60;59.50
16402;DHT22;8310;44.626;11.176;2023-04-25T12:44:07;20.60;59.40
16402;DHT22;8310;44.626;11.176;2023-04-25T12:46:36;20.50;59.20
16402;DHT22;8310;44.626;11.176;2023-04-25T12:49:04;20.50;59.20
16402;DHT22;8310;44.626;11.176;2023-04-25T12:51:32;20.40;59.30
16402;DHT22;8310;44.626;11.176;2023-04-25T12:54:00;20.40;59.40
16402;DHT22;8310;44.626;11.176;2023-04-25T12:56:27;20.60;59.80
16402;DHT22;8310;44.626;11.176;2023-04-25T12:58:55;20.60;59.40
16402;DHT22;8310;44.626;11.176;2023-04-25T13:01:23;20.70;58.60
16402;DHT22;8310;44.626;11.176;2023-04-25T13:03:55;20.50;57.80
16402;DHT22;8310;44.626;11.176;2023-04-25T13:06:23;20.40;58.30
16402;DHT22;8310;44.626;11.176;2023-04-25T13:08:50;20.30;58.70
16402;DHT22;8310;44.626;11.176;2023-04-25T13:11:18;20.30;59.10
16402;DHT22;8310;44.626;11.176;2023-04-25T13:13:45;20.40;59.20
16402;DHT22;8310;44.626;11.176;2023-04-25T13:16:13;20.40;59.40
16402;DHT22;8310;44.626;11.176;2023-04-25T13:18:41;20.50;59.30
16402;DHT22;8310;44.626;11.176;2023-04-25T13:21:11;20.50;59.20
16402;DHT22;8310;44.626;11.176;2023-04-25T13:23:40;20.50;59.20
16402;DHT22;8310;44.626;11.176;2023-04-25T13:26:08;20.60;58.80
16402;DHT22;8310;44.626;11.176;2023-04-25T13:28:35;20.50;58.80
16402;DHT22;8310;44.626;11.176;2023-04-25T13:31:03;20.50;58.80
16402;DHT22;8310;44.626;11.176;2023-04-25T13:33:31;20.40;58.90
16402;DHT22;8310;44.626;11.176;2023-04-25T13:35:58;20.40;59.00
16402;DHT22;8310;44.626;11.176;2023-04-25T13:38:27;20.40;58.80
16402;DHT22;8310;44.626;11.176;2023-04-25T13:40:54;20.30;58.80
16402;DHT22;8310;44.626;11.176;2023-04-25T13:43:22;20.30;58.80
16402;DHT22;8310;44.626;11.176;2023-04-25T13:45:49;20.30;58.90
16402;DHT22;8310;44.626;11.176;2023-04-25T13:48:17;20.30;58.90
16402;DHT22;8310;44.626;11.176;2023-04-25T13:50:44;20.30;58.80
16402;DHT22;8310;44.626;11.176;2023-04-25T13:53:11;20.20;58.60
16402;DHT22;8310;44.626;11.176;2023-04-25T13:55:40;20.20;58.70
16402;DHT22;8310;44.626;11.176;2023-04-25T13:58:07;20.10;58.60
16402;DHT22;8310;44.626;11.176;2023-04-25T14:00:35;20.10;58.30
16402;DHT22;8310;44.626;11.176;2023-04-25T14:03:03;19.90;58.10
16402;DHT22;8310;44.626;11.176;2023-04-25T14:05:33;19.90;58.50
16402;DHT22;8310;44.626;11.176;2023-04-25T14:08:04;19.90;59.00
16402;DHT22;8310;44.626;11.176;2023-04-25T14:10:32;20.00;59.20
16402;DHT22;8310;44.626;11.176;2023-04-25T14:13:02;20.20;59.30
16402;DHT22;8310;44.626;11.176;2023-04-25T14:15:32;20.30;59.30
16402;DHT22;8310;44.626;11.176;2023-04-25T14:18:00;20.40;59.40
16402;DHT22;8310;44.626;11.176;2023-04-25T14:20:27;20.50;59.00
16402;DHT22;8310;44.626;11.176;2023-04-25T14:22:54;20.50;58.60
16402;DHT22;8310;44.626;11.176;2023-04-25T14:25:23;20.40;58.30
16402;DHT22;8310;44.626;11.176;2023-04-25T14:27:50;20.30;58.20
16402;DHT22;8310;44.626;11.176;2023-04-25T14:30:20;20.20;58.30
16402;DHT22;8310;44.626;11.176;2023-04-25T14:32:48;20.10;58.00
16402;DHT22;8310;44.626;11.176;2023-04-25T14:35:16;20.00;58.10
16402;DHT22;8310;44.626;11.176;2023-04-25T14:37:43;19.90;58.00
16402;DHT22;8310;44.626;11.176;2023-04-25T14:40:11;19.90;58.00
16402;DHT22;8310;44.626;11.176;2023-04-25T14:42:39;19.80;58.00
16402;DHT22;8310;44.626;11.176;2023-04-25T14:45:07;19.70;57.90
16402;DHT22;8310;44.626;11.176;2023-04-25T14:47:36;19.70;57.80
16402;DHT22;8310;44.626;11.176;2023-04-25T14:50:03;19.60;58.00
16402;DHT22;8310;44.626;11.176;2023-04-25T14:52:31;19.50;57.60
16402;DHT22;8310;44.626;11.176;2023-04-25T14:54:58;19.40;57.60
16402;DHT22;8310;44.626;11.176;2023-04-25T14:57:30;19.40;57.60
16402;DHT22;8310;44.626;11.176;2023-04-25T14:59:57;19.30;57.80
16402;DHT22;8310;44.626;11.176;2023-04-25T15:02:24;19.20;57.80
16402;DHT22;8310;44.626;11.176;2023-04-25T15:04:53;19.20;58.10
16402;DHT22;8310;44.626;11.176;2023-04-25T15:07:21;19.30;58.20
16402;DHT22;8310;44.626;11.176;2023-04-25T15:09:48;19.30;58.10
16402;DHT22;8310;44.626;11.176;2023-04-25T15:12:15;19.30;58.20
16402;DHT22;8310;44.626;11.176;2023-04-25T15:14:42;19.30;58.50
16402;DHT22;8310;44.626;11.176;2023-04-25T15:17:10;19.40;58.70
16402;DHT22;8310;44.626;11.176;2023-04-25T15:19:38;19.50;58.70
16402;DHT22;8310;44.626;11.176;2023-04-25T15:22:07;19.60;58.60
16402;DHT22;8310;44.626;11.176;2023-04-25T15:24:35;19.70;58.70
16402;DHT22;8310;44.626;11.176;2023-04-25T15:27:02;19.70;58.60
16402;DHT22;8310;44.626;11.176;2023-04-25T15:29:29;19.70;58.40
16402;DHT22;8310;44.626;11.176;2023-04-25T15:31:57;19.60;57.90
16402;DHT22;8310;44.626;11.176;2023-04-25T15:34:24;19.50;57.20
16402;DHT22;8310;44.626;11.176;2023-04-25T15:36:51;19.40;57.60
16402;DHT22;8310;44.626;11.176;2023-04-25T15:39:20;19.30;57.50
16402;DHT22;8310;44.626;11.176;2023-04-25T15:41:47;19.20;57.70
16402;DHT22;8310;44.626;11.176;2023-04-25T15:44:14;19.10;57.80